sensor_id;sensor_type;location;lat;lon;timestamp;P1;durP1;ratioP1;P2;durP2;ratioP2
24635;SDS011;12772;49.794;10.024;2023-05-07T00:02:02;2.58;;;2.38;;
24635;SDS011;12772;49.794;10.024;2023-05-07T00:06:04;2.63;;;2.42;;
24635;SDS011;12772;49.794;10.024;2023-05-07T00:10:06;3.67;;;2.05;;
24635;SDS011;12772;49.794;10.024;2023-05-07T00:14:09;2.17;;;2.03;;
24635;SDS011;12772;49.794;10.024;2023-05-07T00:18:11;2.80;;;1.92;;
24635;SDS011;12772;49.794;10.024;2023-05-07T00:22:13;2.60;;;2.00;;
24635;SDS011;12772;49.794;10.024;2023-05-07T00:26:15;2.25;;;2.05;;
24635;SDS011;12772;49.794;10.024;2023-05-07T00:30:17;2.05;;;1.95;;
24635;SDS011;12772;49.794;10.024;2023-05-07T00:34:19;2.50;;;1.90;;
24635;SDS011;12772;49.794;10.024;2023-05-07T00:38:21;2.58;;;2.00;;
24635;SDS011;12772;49.794;10.024;2023-05-07T00:42:23;3.28;;;2.10;;
24635;SDS011;12772;49.794;10.024;2023-05-07T00:46:25;3.08;;;2.20;;
24635;SDS011;12772;49.794;10.024;2023-05-07T00:50:28;3.35;;;2.13;;
24635;SDS011;12772;49.794;10.024;2023-05-07T00:54:30;1.83;;;1.73;;
24635;SDS011;12772;49.794;10.024;2023-05-07T00:58:33;2.28;;;2.00;;
24635;SDS011;12772;49.794;10.024;2023-05-07T01:02:36;2.20;;;2.10;;
24635;SDS011;12772;49.794;10.024;2023-05-07T01:06:39;2.05;;;1.95;;
24635;SDS011;12772;49.794;10.024;2023-05-07T01:10:42;1.88;;;1.77;;
24635;SDS011;12772;49.794;10.024;2023-05-07T01:14:45;2.60;;;2.40;;
24635;SDS011;12772;49.794;10.024;2023-05-07T01:18:49;6.80;;;5.40;;
24635;SDS011;12772;49.794;10.024;2023-05-07T01:22:51;5.38;;;4.88;;
24635;SDS011;12772;49.794;10.024;2023-05-07T01:26:54;3.40;;;3.10;;
24635;SDS011;12772;49.794;10.024;2023-05-07T01:31:00;2.75;;;2.55;;
24635;SDS011;12772;49.794;10.024;2023-05-07T01:35:05;3.95;;;2.58;;
24635;SDS011;12772;49.794;10.024;2023-05-07T01:39:10;2.45;;;2.00;;
24635;SDS011;12772;49.794;10.024;2023-05-07T01:43:14;1.83;;;1.73;;
24635;SDS011;12772;49.794;10.024;2023-05-07T01:47:16;3.35;;;2.30;;
24635;SDS011;12772;49.794;10.024;2023-05-07T01:51:18;2.08;;;1.88;;
24635;SDS011;12772;49.794;10.024;2023-05-07T01:55:21;2.03;;;1.83;;
24635;SDS011;12772;49.794;10.024;2023-05-07T01:59:24;1.88;;;1.73;;
24635;SDS011;12772;49.794;10.024;2023-05-07T02:03:26;2.28;;;1.98;;
24635;SDS011;12772;49.794;10.024;2023-05-07T02:07:28;2.05;;;1.95;;
24635;SDS011;12772;49.794;10.024;2023-05-07T02:11:30;3.10;;;2.10;;
24635;SDS011;12772;49.794;10.024;2023-05-07T02:15:32;1.80;;;1.70;;
24635;SDS011;12772;49.794;10.024;2023-05-07T02:19:34;3.60;;;1.83;;
24635;SDS011;12772;49.794;10.024;2023-05-07T02:23:36;2.00;;;1.90;;
24635;SDS011;12772;49.794;10.024;2023-05-07T02:27:38;2.65;;;1.92;;
24635;SDS011;12772;49.794;10.024;2023-05-07T02:31:40;2.10;;;2.00;;
24635;SDS011;12772;49.794;10.024;2023-05-07T02:35:42;2.30;;;2.20;;
24635;SDS011;12772;49.794;10.024;2023-05-07T02:39:44;2.10;;;2.00;;
24635;SDS011;12772;49.794;10.024;2023-05-07T02:43:46;2.38;;;2.17;;
24635;SDS011;12772;49.794;10.024;2023-05-07T02:47:48;1.83;;;1.73;;
24635;SDS011;12772;49.794;10.024;2023-05-07T02:51:50;7.10;;;2.17;;
24635;SDS011;12772;49.794;10.024;2023-05-07T02:55:52;3.22;;;2.20;;
24635;SDS011;12772;49.794;10.024;2023-05-07T02:59:55;2.30;;;2.10;;
24635;SDS011;12772;49.794;10.024;2023-05-07T03:03:57;3.08;;;2.28;;
24635;SDS011;12772;49.794;10.024;2023-05-07T03:07:59;2.20;;;2.10;;
24635;SDS011;12772;49.794;10.024;2023-05-07T03:12:01;2.85;;;2.30;;
24635;SDS011;12772;49.794;10.024;2023-05-07T03:16:03;6.25;;;3.17;;
24635;SDS011;12772;49.794;10.024;2023-05-07T03:20:05;2.60;;;2.40;;
24635;SDS011;12772;49.794;10.024;2023-05-07T03:24:08;2.17;;;2.00;;
24635;SDS011;12772;49.794;10.024;2023-05-07T03:28:10;6.18;;;2.50;;
24635;SDS011;12772;49.794;10.024;2023-05-07T03:32:13;2.58;;;2.38;;
24635;SDS011;12772;49.794;10.024;2023-05-07T03:36:15;5.97;;;2.50;;
24635;SDS011;12772;49.794;10.024;2023-05-07T03:40:17;2.58;;;2.38;;
24635;SDS011;12772;49.794;10.024;2023-05-07T03:44:19;2.80;;;2.60;;
24635;SDS011;12772;49.794;10.024;2023-05-07T03:48:21;2.80;;;2.60;;
24635;SDS011;12772;49.794;10.024;2023-05-07T03:52:23;2.83;;;2.63;;
24635;SDS011;12772;49.794;10.024;2023-05-07T03:56:26;2.92;;;2.72;;
24635;SDS011;12772;49.794;10.024;2023-05-07T04:00:28;2.65;;;2.47;;
24635;SDS011;12772;49.794;10.024;2023-05-07T04:04:33;3.05;;;2.78;;
24635;SDS011;12772;49.794;10.024;2023-05-07T04:08:36;3.97;;;3.58;;
24635;SDS011;12772;49.794;10.024;2023-05-07T04:12:38;4.68;;;4.38;;
24635;SDS011;12772;49.794;10.024;2023-05-07T04:16:40;5.47;;;5.00;;
24635;SDS011;12772;49.794;10.024;2023-05-07T04:20:42;4.65;;;4.25;;
24635;SDS011;12772;49.794;10.024;2023-05-07T04:24:44;4.72;;;4.43;;
24635;SDS011;12772;49.794;10.024;2023-05-07T04:28:46;4.63;;;4.22;;
24635;SDS011;12772;49.794;10.024;2023-05-07T04:32:47;4.57;;;4.28;;
24635;SDS011;12772;49.794;10.024;2023-05-07T04:36:49;5.05;;;4.53;;
24635;SDS011;12772;49.794;10.024;2023-05-07T04:40:51;5.30;;;4.90;;
24635;SDS011;12772;49.794;10.024;2023-05-07T04:44:53;6.18;;;5.65;;
24635;SDS011;12772;49.794;10.024;2023-05-07T04:48:56;7.25;;;5.80;;
24635;SDS011;12772;49.794;10.024;2023-05-07T04:52:58;6.15;;;5.53;;
24635;SDS011;12772;49.794;10.024;2023-05-07T04:57:00;6.65;;;6.15;;
24635;SDS011;12772;49.794;10.024;2023-05-07T05:01:02;5.60;;;5.10;;
24635;SDS011;12772;49.794;10.024;2023-05-07T05:05:05;8.27;;;5.15;;
24635;SDS011;12772;49.794;10.024;2023-05-07T05:09:07;6.20;;;5.50;;
24635;SDS011;12772;49.794;10.024;2023-05-07T05:13:09;7.10;;;6.50;;
24635;SDS011;12772;49.794;10.024;2023-05-07T05:17:13;7.53;;;6.93;;
24635;SDS011;12772;49.794;10.024;2023-05-07T05:21:15;6.78;;;6.18;;
24635;SDS011;12772;49.794;10.024;2023-05-07T05:25:17;7.25;;;6.65;;
24635;SDS011;12772;49.794;10.024;2023-05-07T05:29:19;6.07;;;5.47;;
24635;SDS011;12772;49.794;10.024;2023-05-07T05:33:21;7.35;;;6.75;;
24635;SDS011;12772;49.794;10.024;2023-05-07T05:37:23;6.85;;;6.25;;
24635;SDS011;12772;49.794;10.024;2023-05-07T05:41:25;6.82;;;6.22;;
24635;SDS011;12772;49.794;10.024;2023-05-07T05:45:27;6.53;;;5.93;;
24635;SDS011;12772;49.794;10.024;2023-05-07T05:49:29;6.90;;;6.40;;
24635;SDS011;12772;49.794;10.024;2023-05-07T05:53:31;6.82;;;6.30;;
24635;SDS011;12772;49.794;10.024;2023-05-07T05:57:33;7.30;;;6.70;;
24635;SDS011;12772;49.794;10.024;2023-05-07T06:01:35;7.32;;;6.72;;
24635;SDS011;12772;49.794;10.024;2023-05-07T06:05:37;6.30;;;5.82;;
24635;SDS011;12772;49.794;10.024;2023-05-07T06:09:39;7.85;;;6.95;;
24635;SDS011;12772;49.794;10.024;2023-05-07T06:13:42;6.95;;;6.35;;
24635;SDS011;12772;49.794;10.024;2023-05-07T06:17:44;7.95;;;7.28;;
24635;SDS011;12772;49.794;10.024;2023-05-07T06:21:46;7.75;;;6.93;;
24635;SDS011;12772;49.794;10.024;2023-05-07T06:25:48;7.80;;;7.10;;
24635;SDS011;12772;49.794;10.024;2023-05-07T06:29:51;7.43;;;6.78;;
24635;SDS011;12772;49.794;10.024;2023-05-07T06:33:53;10.32;;;7.60;;
24635;SDS011;12772;49.794;10.024;2023-05-07T06:37:55;7.43;;;6.72;;
24635;SDS011;12772;49.794;10.024;2023-05-07T06:41:57;6.38;;;5.93;;
24635;SDS011;12772;49.794;10.024;2023-05-07T06:46:01;6.75;;;6.15;;
24635;SDS011;12772;49.794;10.024;2023-05-07T06:50:04;7.63;;;7.03;;
24635;SDS011;12772;49.794;10.024;2023-05-07T06:54:06;7.53;;;6.82;;
24635;SDS011;12772;49.794;10.024;2023-05-07T06:58:08;7.32;;;6.72;;
24635;SDS011;12772;49.794;10.024;2023-05-07T07:02:10;7.70;;;7.10;;
24635;SDS011;12772;49.794;10.024;2023-05-07T07:06:13;7.43;;;6.80;;
24635;SDS011;12772;49.794;10.024;2023-05-07T07:10:15;7.35;;;6.75;;
24635;SDS011;12772;49.794;10.024;2023-05-07T07:14:16;7.93;;;7.22;;
24635;SDS011;12772;49.794;10.024;2023-05-07T07:18:18;7.30;;;6.70;;
24635;SDS011;12772;49.794;10.024;2023-05-07T07:22:21;7.82;;;7.18;;
24635;SDS011;12772;49.794;10.024;2023-05-07T07:26:23;8.25;;;7.53;;
24635;SDS011;12772;49.794;10.024;2023-05-07T07:30:25;7.32;;;6.72;;
24635;SDS011;12772;49.794;10.024;2023-05-07T07:34:27;7.97;;;7.38;;
24635;SDS011;12772;49.794;10.024;2023-05-07T07:38:29;7.68;;;6.97;;
24635;SDS011;12772;49.794;10.024;2023-05-07T07:42:31;7.65;;;6.95;;
24635;SDS011;12772;49.794;10.024;2023-05-07T07:46:33;7.60;;;6.97;;
24635;SDS011;12772;49.794;10.024;2023-05-07T07:50:36;7.90;;;7.20;;
24635;SDS011;12772;49.794;10.024;2023-05-07T07:54:38;7.65;;;6.97;;
24635;SDS011;12772;49.794;10.024;2023-05-07T07:58:40;7.28;;;6.68;;
24635;SDS011;12772;49.794;10.024;2023-05-07T08:02:42;6.57;;;5.95;;
24635;SDS011;12772;49.794;10.024;2023-05-07T08:06:44;6.47;;;5.88;;
24635;SDS011;12772;49.794;10.024;2023-05-07T08:10:47;7.78;;;6.15;;
24635;SDS011;12772;49.794;10.024;2023-05-07T08:14:50;5.95;;;5.45;;
24635;SDS011;12772;49.794;10.024;2023-05-07T08:18:52;6.68;;;6.07;;
24635;SDS011;12772;49.794;10.024;2023-05-07T08:22:54;6.43;;;5.95;;
24635;SDS011;12772;49.794;10.024;2023-05-07T08:26:56;7.50;;;6.90;;
24635;SDS011;12772;49.794;10.024;2023-05-07T08:30:58;6.35;;;5.75;;
24635;SDS011;12772;49.794;10.024;2023-05-07T08:35:01;7.05;;;6.45;;
24635;SDS011;12772;49.794;10.024;2023-05-07T08:39:03;6.45;;;6.05;;
24635;SDS011;12772;49.794;10.024;2023-05-07T08:43:05;7.43;;;6.82;;
24635;SDS011;12772;49.794;10.024;2023-05-07T08:47:08;6.05;;;5.55;;
24635;SDS011;12772;49.794;10.024;2023-05-07T08:51:15;7.30;;;6.70;;
24635;SDS011;12772;49.794;10.024;2023-05-07T08:55:18;7.97;;;7.10;;
24635;SDS011;12772;49.794;10.024;2023-05-07T08:59:21;7.63;;;6.90;;
24635;SDS011;12772;49.794;10.024;2023-05-07T09:03:24;7.45;;;6.75;;
24635;SDS011;12772;49.794;10.024;2023-05-07T09:07:26;6.75;;;6.15;;
24635;SDS011;12772;49.794;10.024;2023-05-07T09:11:28;6.93;;;6.32;;
24635;SDS011;12772;49.794;10.024;2023-05-07T09:15:30;7.03;;;6.30;;
24635;SDS011;12772;49.794;10.024;2023-05-07T09:19:32;7.10;;;6.50;;
24635;SDS011;12772;49.794;10.024;2023-05-07T09:23:34;6.97;;;6.45;;
24635;SDS011;12772;49.794;10.024;2023-05-07T09:27:36;6.78;;;6.28;;
24635;SDS011;12772;49.794;10.024;2023-05-07T09:31:38;6.32;;;5.82;;
24635;SDS011;12772;49.794;10.024;2023-05-07T09:35:40;6.57;;;6.05;;
24635;SDS011;12772;49.794;10.024;2023-05-07T09:39:43;7.22;;;6.63;;
24635;SDS011;12772;49.794;10.024;2023-05-07T09:43:54;11.07;;;6.88;;
24635;SDS011;12772;49.794;10.024;2023-05-07T09:47:57;8.13;;;6.97;;
24635;SDS011;12772;49.794;10.024;2023-05-07T09:52:00;7.82;;;6.63;;
24635;SDS011;12772;49.794;10.024;2023-05-07T09:56:04;7.55;;;5.85;;
24635;SDS011;12772;49.794;10.024;2023-05-07T10:00:06;7.88;;;6.40;;
24635;SDS011;12772;49.794;10.024;2023-05-07T10:04:12;6.20;;;5.60;;
24635;SDS011;12772;49.794;10.024;2023-05-07T10:08:15;6.18;;;5.60;;
24635;SDS011;12772;49.794;10.024;2023-05-07T10:12:20;6.07;;;5.57;;
24635;SDS011;12772;49.794;10.024;2023-05-07T10:16:22;7.15;;;6.55;;
24635;SDS011;12772;49.794;10.024;2023-05-07T10:20:25;6.30;;;5.68;;
24635;SDS011;12772;49.794;10.024;2023-05-07T10:24:31;6.25;;;5.75;;
24635;SDS011;12772;49.794;10.024;2023-05-07T10:28:37;6.28;;;5.78;;
24635;SDS011;12772;49.794;10.024;2023-05-07T10:32:42;6.32;;;5.78;;
24635;SDS011;12772;49.794;10.024;2023-05-07T10:36:52;6.22;;;5.75;;
24635;SDS011;12772;49.794;10.024;2023-05-07T10:40:56;5.93;;;5.43;;
24635;SDS011;12772;49.794;10.024;2023-05-07T10:45:10;5.47;;;4.97;;
24635;SDS011;12772;49.794;10.024;2023-05-07T10:49:14;5.57;;;5.18;;
24635;SDS011;12772;49.794;10.024;2023-05-07T10:57:32;5.57;;;5.10;;
24635;SDS011;12772;49.794;10.024;2023-05-07T11:01:50;5.13;;;4.72;;
24635;SDS011;12772;49.794;10.024;2023-05-07T11:06:18;5.38;;;4.97;;
24635;SDS011;12772;49.794;10.024;2023-05-07T11:10:20;5.18;;;4.78;;
24635;SDS011;12772;49.794;10.024;2023-05-07T11:18:57;6.22;;;4.93;;
24635;SDS011;12772;49.794;10.024;2023-05-07T11:22:59;4.75;;;4.35;;
24635;SDS011;12772;49.794;10.024;2023-05-07T11:27:01;4.82;;;4.43;;
24635;SDS011;12772;49.794;10.024;2023-05-07T11:31:03;4.60;;;4.30;;
24635;SDS011;12772;49.794;10.024;2023-05-07T11:35:06;30.85;;;7.00;;
24635;SDS011;12772;49.794;10.024;2023-05-07T11:39:27;5.18;;;4.78;;
24635;SDS011;12772;49.794;10.024;2023-05-07T11:43:29;5.53;;;5.10;;
24635;SDS011;12772;49.794;10.024;2023-05-07T11:47:31;5.03;;;4.63;;
24635;SDS011;12772;49.794;10.024;2023-05-07T11:51:33;4.20;;;3.80;;
24635;SDS011;12772;49.794;10.024;2023-05-07T11:55:35;4.32;;;3.92;;
24635;SDS011;12772;49.794;10.024;2023-05-07T11:59:38;5.72;;;3.95;;
24635;SDS011;12772;49.794;10.024;2023-05-07T12:03:45;4.50;;;4.20;;
24635;SDS011;12772;49.794;10.024;2023-05-07T12:07:47;4.10;;;3.80;;
24635;SDS011;12772;49.794;10.024;2023-05-07T12:11:49;4.13;;;3.83;;
24635;SDS011;12772;49.794;10.024;2023-05-07T12:15:53;4.07;;;3.78;;
24635;SDS011;12772;49.794;10.024;2023-05-07T12:19:57;4.50;;;4.10;;
24635;SDS011;12772;49.794;10.024;2023-05-07T12:23:59;3.97;;;3.63;;
24635;SDS011;12772;49.794;10.024;2023-05-07T12:28:02;4.35;;;3.55;;
24635;SDS011;12772;49.794;10.024;2023-05-07T12:32:08;5.78;;;2.80;;
24635;SDS011;12772;49.794;10.024;2023-05-07T12:36:18;3.75;;;3.45;;
24635;SDS011;12772;49.794;10.024;2023-05-07T12:40:21;8.93;;;3.65;;
24635;SDS011;12772;49.794;10.024;2023-05-07T12:44:32;3.22;;;3.03;;
24635;SDS011;12772;49.794;10.024;2023-05-07T12:48:36;3.13;;;2.92;;
24635;SDS011;12772;49.794;10.024;2023-05-07T12:52:39;3.17;;;2.83;;
24635;SDS011;12772;49.794;10.024;2023-05-07T12:56:41;3.53;;;2.55;;
24635;SDS011;12772;49.794;10.024;2023-05-07T13:00:43;2.55;;;2.28;;
24635;SDS011;12772;49.794;10.024;2023-05-07T13:04:46;2.78;;;2.35;;
24635;SDS011;12772;49.794;10.024;2023-05-07T13:08:48;3.65;;;2.35;;
24635;SDS011;12772;49.794;10.024;2023-05-07T13:12:50;2.88;;;2.10;;
24635;SDS011;12772;49.794;10.024;2023-05-07T13:16:53;2.38;;;2.20;;
24635;SDS011;12772;49.794;10.024;2023-05-07T13:20:55;2.30;;;2.10;;
24635;SDS011;12772;49.794;10.024;2023-05-07T13:24:57;2.05;;;1.95;;
24635;SDS011;12772;49.794;10.024;2023-05-07T13:28:59;2.35;;;2.25;;
24635;SDS011;12772;49.794;10.024;2023-05-07T13:33:01;2.50;;;2.25;;
24635;SDS011;12772;49.794;10.024;2023-05-07T13:37:05;2.70;;;2.50;;
24635;SDS011;12772;49.794;10.024;2023-05-07T13:41:08;3.00;;;2.80;;
24635;SDS011;12772;49.794;10.024;2023-05-07T13:45:10;3.10;;;2.90;;
24635;SDS011;12772;49.794;10.024;2023-05-07T13:49:14;2.67;;;2.47;;
24635;SDS011;12772;49.794;10.024;2023-05-07T13:53:16;3.25;;;2.53;;
24635;SDS011;12772;49.794;10.024;2023-05-07T13:57:18;3.33;;;2.20;;
24635;SDS011;12772;49.794;10.024;2023-05-07T14:01:21;2.80;;;2.42;;
24635;SDS011;12772;49.794;10.024;2023-05-07T14:05:23;2.45;;;2.35;;
24635;SDS011;12772;49.794;10.024;2023-05-07T14:09:25;2.65;;;2.53;;
24635;SDS011;12772;49.794;10.024;2023-05-07T14:13:27;2.67;;;2.28;;
24635;SDS011;12772;49.794;10.024;2023-05-07T14:17:31;2.38;;;2.28;;
24635;SDS011;12772;49.794;10.024;2023-05-07T14:21:33;5.32;;;2.65;;
24635;SDS011;12772;49.794;10.024;2023-05-07T14:25:35;3.17;;;2.92;;
24635;SDS011;12772;49.794;10.024;2023-05-07T14:29:37;2.30;;;2.20;;
24635;SDS011;12772;49.794;10.024;2023-05-07T14:33:39;8.23;;;7.47;;
24635;SDS011;12772;49.794;10.024;2023-05-07T14:37:41;5.20;;;3.60;;
24635;SDS011;12772;49.794;10.024;2023-05-07T14:41:43;3.20;;;3.00;;
24635;SDS011;12772;49.794;10.024;2023-05-07T14:45:45;3.42;;;3.17;;
24635;SDS011;12772;49.794;10.024;2023-05-07T14:49:47;4.85;;;3.33;;
24635;SDS011;12772;49.794;10.024;2023-05-07T14:53:50;4.22;;;3.63;;
24635;SDS011;12772;49.794;10.024;2023-05-07T14:57:52;3.65;;;3.42;;
24635;SDS011;12772;49.794;10.024;2023-05-07T15:01:54;3.30;;;3.00;;
24635;SDS011;12772;49.794;10.024;2023-05-07T15:05:56;2.97;;;2.75;;
24635;SDS011;12772;49.794;10.024;2023-05-07T15:09:58;4.55;;;3.00;;
24635;SDS011;12772;49.794;10.024;2023-05-07T15:14:00;4.70;;;3.28;;
24635;SDS011;12772;49.794;10.024;2023-05-07T15:18:02;3.15;;;2.90;;
24635;SDS011;12772;49.794;10.024;2023-05-07T15:22:04;3.20;;;3.00;;
24635;SDS011;12772;49.794;10.024;2023-05-07T15:26:06;4.65;;;3.33;;
24635;SDS011;12772;49.794;10.024;2023-05-07T15:30:09;5.90;;;3.10;;
24635;SDS011;12772;49.794;10.024;2023-05-07T15:34:11;3.20;;;3.00;;
24635;SDS011;12772;49.794;10.024;2023-05-07T15:38:15;3.70;;;3.30;;
24635;SDS011;12772;49.794;10.024;2023-05-07T15:42:17;3.17;;;2.97;;
24635;SDS011;12772;49.794;10.024;2023-05-07T15:46:20;3.47;;;3.25;;
24635;SDS011;12772;49.794;10.024;2023-05-07T15:50:23;3.58;;;3.28;;
24635;SDS011;12772;49.794;10.024;2023-05-07T15:54:25;4.22;;;3.22;;
24635;SDS011;12772;49.794;10.024;2023-05-07T15:58:27;3.22;;;2.97;;
24635;SDS011;12772;49.794;10.024;2023-05-07T16:02:29;8.00;;;3.72;;
24635;SDS011;12772;49.794;10.024;2023-05-07T16:06:31;10.98;;;3.55;;
24635;SDS011;12772;49.794;10.024;2023-05-07T16:10:33;4.28;;;3.33;;
24635;SDS011;12772;49.794;10.024;2023-05-07T16:14:35;7.40;;;3.08;;
24635;SDS011;12772;49.794;10.024;2023-05-07T16:18:38;3.30;;;3.10;;
24635;SDS011;12772;49.794;10.024;2023-05-07T16:22:40;6.80;;;2.97;;
24635;SDS011;12772;49.794;10.024;2023-05-07T16:26:42;12.30;;;3.40;;
24635;SDS011;12772;49.794;10.024;2023-05-07T16:30:44;3.20;;;3.00;;
24635;SDS011;12772;49.794;10.024;2023-05-07T16:34:46;4.68;;;3.13;;
24635;SDS011;12772;49.794;10.024;2023-05-07T16:38:48;4.68;;;3.45;;
24635;SDS011;12772;49.794;10.024;2023-05-07T16:42:50;3.33;;;3.13;;
24635;SDS011;12772;49.794;10.024;2023-05-07T16:46:52;4.53;;;3.08;;
24635;SDS011;12772;49.794;10.024;2023-05-07T16:50:54;4.93;;;3.85;;
24635;SDS011;12772;49.794;10.024;2023-05-07T16:54:56;3.80;;;3.50;;
24635;SDS011;12772;49.794;10.024;2023-05-07T16:59:00;3.70;;;3.40;;
24635;SDS011;12772;49.794;10.024;2023-05-07T17:03:03;4.28;;;3.70;;
24635;SDS011;12772;49.794;10.024;2023-05-07T17:07:05;4.85;;;3.40;;
24635;SDS011;12772;49.794;10.024;2023-05-07T17:11:07;4.78;;;4.40;;
24635;SDS011;12772;49.794;10.024;2023-05-07T17:15:09;3.67;;;3.38;;
24635;SDS011;12772;49.794;10.024;2023-05-07T17:19:12;4.88;;;4.40;;
24635;SDS011;12772;49.794;10.024;2023-05-07T17:23:14;9.57;;;4.43;;
24635;SDS011;12772;49.794;10.024;2023-05-07T17:27:16;4.40;;;4.00;;
24635;SDS011;12772;49.794;10.024;2023-05-07T17:31:18;4.53;;;4.20;;
24635;SDS011;12772;49.794;10.024;2023-05-07T17:35:20;7.72;;;4.25;;
24635;SDS011;12772;49.794;10.024;2023-05-07T17:39:22;4.45;;;3.22;;
24635;SDS011;12772;49.794;10.024;2023-05-07T17:43:24;3.40;;;3.20;;
24635;SDS011;12772;49.794;10.024;2023-05-07T17:47:26;3.08;;;2.80;;
24635;SDS011;12772;49.794;10.024;2023-05-07T17:51:28;3.92;;;3.63;;
24635;SDS011;12772;49.794;10.024;2023-05-07T17:55:30;4.32;;;4.03;;
24635;SDS011;12772;49.794;10.024;2023-05-07T17:59:33;4.50;;;4.20;;
24635;SDS011;12772;49.794;10.024;2023-05-07T18:03:35;4.05;;;3.75;;
24635;SDS011;12772;49.794;10.024;2023-05-07T18:07:37;4.20;;;3.90;;
24635;SDS011;12772;49.794;10.024;2023-05-07T18:11:39;4.55;;;4.25;;
24635;SDS011;12772;49.794;10.024;2023-05-07T18:15:41;4.38;;;3.97;;
24635;SDS011;12772;49.794;10.024;2023-05-07T18:19:45;4.60;;;4.28;;
24635;SDS011;12772;49.794;10.024;2023-05-07T18:23:47;7.07;;;4.10;;
24635;SDS011;12772;49.794;10.024;2023-05-07T18:27:50;3.92;;;3.58;;
24635;SDS011;12772;49.794;10.024;2023-05-07T18:31:52;4.47;;;4.10;;
24635;SDS011;12772;49.794;10.024;2023-05-07T18:35:54;4.70;;;4.40;;
24635;SDS011;12772;49.794;10.024;2023-05-07T18:39:56;4.70;;;4.30;;
24635;SDS011;12772;49.794;10.024;2023-05-07T18:44:01;5.78;;;4.65;;
24635;SDS011;12772;49.794;10.024;2023-05-07T18:48:04;4.07;;;3.75;;
24635;SDS011;12772;49.794;10.024;2023-05-07T18:52:06;4.95;;;4.45;;
24635;SDS011;12772;49.794;10.024;2023-05-07T18:56:08;5.57;;;5.03;;
24635;SDS011;12772;49.794;10.024;2023-05-07T19:00:11;4.45;;;4.05;;
24635;SDS011;12772;49.794;10.024;2023-05-07T19:04:13;4.38;;;4.07;;
24635;SDS011;12772;49.794;10.024;2023-05-07T19:08:17;4.75;;;4.30;;
24635;SDS011;12772;49.794;10.024;2023-05-07T19:12:19;4.72;;;4.28;;
24635;SDS011;12772;49.794;10.024;2023-05-07T19:16:21;4.28;;;3.88;;
24635;SDS011;12772;49.794;10.024;2023-05-07T19:20:24;4.55;;;4.15;;
24635;SDS011;12772;49.794;10.024;2023-05-07T19:24:26;4.78;;;4.38;;
24635;SDS011;12772;49.794;10.024;2023-05-07T19:28:28;4.47;;;4.10;;
24635;SDS011;12772;49.794;10.024;2023-05-07T19:32:30;4.28;;;3.97;;
24635;SDS011;12772;49.794;10.024;2023-05-07T19:36:32;4.40;;;4.10;;
24635;SDS011;12772;49.794;10.024;2023-05-07T19:40:34;3.78;;;3.50;;
24635;SDS011;12772;49.794;10.024;2023-05-07T19:44:36;4.60;;;4.20;;
24635;SDS011;12772;49.794;10.024;2023-05-07T19:48:38;4.95;;;3.53;;
24635;SDS011;12772;49.794;10.024;2023-05-07T19:52:40;4.00;;;3.72;;
24635;SDS011;12772;49.794;10.024;2023-05-07T19:56:42;3.60;;;3.33;;
24635;SDS011;12772;49.794;10.024;2023-05-07T20:00:44;5.15;;;4.15;;
24635;SDS011;12772;49.794;10.024;2023-05-07T20:04:46;4.70;;;4.35;;
24635;SDS011;12772;49.794;10.024;2023-05-07T20:08:48;4.10;;;3.80;;
24635;SDS011;12772;49.794;10.024;2023-05-07T20:12:50;4.45;;;4.15;;
24635;SDS011;12772;49.794;10.024;2023-05-07T20:16:52;4.25;;;3.78;;
24635;SDS011;12772;49.794;10.024;2023-05-07T20:20:54;4.95;;;4.05;;
24635;SDS011;12772;49.794;10.024;2023-05-07T20:24:57;4.22;;;3.83;;
24635;SDS011;12772;49.794;10.024;2023-05-07T20:28:59;3.78;;;3.47;;
24635;SDS011;12772;49.794;10.024;2023-05-07T20:33:02;3.85;;;3.42;;
24635;SDS011;12772;49.794;10.024;2023-05-07T20:37:04;3.30;;;3.10;;
24635;SDS011;12772;49.794;10.024;2023-05-07T20:41:07;3.72;;;3.42;;
24635;SDS011;12772;49.794;10.024;2023-05-07T20:45:11;3.95;;;3.65;;
24635;SDS011;12772;49.794;10.024;2023-05-07T20:49:13;3.20;;;3.00;;
24635;SDS011;12772;49.794;10.024;2023-05-07T20:53:15;3.53;;;3.22;;
24635;SDS011;12772;49.794;10.024;2023-05-07T20:57:17;3.78;;;3.47;;
24635;SDS011;12772;49.794;10.024;2023-05-07T21:01:19;3.72;;;3.42;;
24635;SDS011;12772;49.794;10.024;2023-05-07T21:05:21;3.90;;;3.30;;
24635;SDS011;12772;49.794;10.024;2023-05-07T21:09:23;3.20;;;3.00;;
24635;SDS011;12772;49.794;10.024;2023-05-07T21:13:26;3.67;;;3.40;;
24635;SDS011;12772;49.794;10.024;2023-05-07T21:17:28;4.32;;;3.42;;
24635;SDS011;12772;49.794;10.024;2023-05-07T21:21:32;3.67;;;3.38;;
24635;SDS011;12772;49.794;10.024;2023-05-07T21:25:37;4.30;;;3.33;;
24635;SDS011;12772;49.794;10.024;2023-05-07T21:29:40;3.72;;;3.42;;
24635;SDS011;12772;49.794;10.024;2023-05-07T21:33:42;4.10;;;3.30;;
24635;SDS011;12772;49.794;10.024;2023-05-07T21:37:45;4.72;;;3.60;;
24635;SDS011;12772;49.794;10.024;2023-05-07T21:41:47;3.67;;;3.45;;
24635;SDS011;12772;49.794;10.024;2023-05-07T21:45:49;3.90;;;3.60;;
24635;SDS011;12772;49.794;10.024;2023-05-07T21:49:51;3.80;;;3.50;;
24635;SDS011;12772;49.794;10.024;2023-05-07T21:53:53;3.85;;;3.60;;
24635;SDS011;12772;49.794;10.024;2023-05-07T21:57:55;4.55;;;4.03;;
24635;SDS011;12772;49.794;10.024;2023-05-07T22:01:57;3.97;;;3.67;;
24635;SDS011;12772;49.794;10.024;2023-05-07T22:05:59;3.67;;;3.38;;
24635;SDS011;12772;49.794;10.024;2023-05-07T22:10:01;3.75;;;3.55;;
24635;SDS011;12772;49.794;10.024;2023-05-07T22:14:03;4.05;;;3.75;;
24635;SDS011;12772;49.794;10.024;2023-05-07T22:18:05;4.90;;;4.15;;
24635;SDS011;12772;49.794;10.024;2023-05-07T22:22:08;4.63;;;4.25;;
24635;SDS011;12772;49.794;10.024;2023-05-07T22:26:11;4.05;;;3.75;;
24635;SDS011;12772;49.794;10.024;2023-05-07T22:30:13;4.18;;;3.92;;
24635;SDS011;12772;49.794;10.024;2023-05-07T22:34:16;4.05;;;3.75;;
24635;SDS011;12772;49.794;10.024;2023-05-07T22:38:18;4.80;;;4.40;;
24635;SDS011;12772;49.794;10.024;2023-05-07T22:42:20;4.95;;;4.45;;
24635;SDS011;12772;49.794;10.024;2023-05-07T22:46:22;4.22;;;3.83;;
24635;SDS011;12772;49.794;10.024;2023-05-07T22:50:24;4.22;;;3.92;;
24635;SDS011;12772;49.794;10.024;2023-05-07T22:54:26;4.28;;;4.00;;
24635;SDS011;12772;49.794;10.024;2023-05-07T22:58:28;4.45;;;4.03;;
24635;SDS011;12772;49.794;10.024;2023-05-07T23:02:30;5.03;;;4.63;;
24635;SDS011;12772;49.794;10.024;2023-05-07T23:06:32;4.82;;;4.32;;
24635;SDS011;12772;49.794;10.024;2023-05-07T23:10:34;4.80;;;4.47;;
24635;SDS011;12772;49.794;10.024;2023-05-07T23:14:36;4.85;;;4.45;;
24635;SDS011;12772;49.794;10.024;2023-05-07T23:18:38;4.78;;;4.47;;
24635;SDS011;12772;49.794;10.024;2023-05-07T23:22:40;4.70;;;4.40;;
24635;SDS011;12772;49.794;10.024;2023-05-07T23:26:42;5.32;;;4.93;;
24635;SDS011;12772;49.794;10.024;2023-05-07T23:30:44;4.90;;;4.50;;
24635;SDS011;12772;49.794;10.024;2023-05-07T23:34:50;4.90;;;4.60;;
24635;SDS011;12772;49.794;10.024;2023-05-07T23:38:54;5.03;;;4.63;;
24635;SDS011;12772;49.794;10.024;2023-05-07T23:42:56;5.45;;;5.10;;
24635;SDS011;12772;49.794;10.024;2023-05-07T23:46:58;4.93;;;4.53;;
24635;SDS011;12772;49.794;10.024;2023-05-07T23:51:00;5.88;;;5.38;;
24635;SDS011;12772;49.794;10.024;2023-05-07T23:55:02;5.45;;;5.05;;
24635;SDS011;12772;49.794;10.024;2023-05-07T23:59:05;4.50;;;4.20;;
